Thunderstorms From: 25-05-2018 15:00 Until: 26-05-2018 15:00 warning for: Thunderstorms Level: Yellow info button

Although rather usual in this region, locally or potentially dangerous phenomena are expected. (such as local winds, summer thunderstorms, rising streams or high waves) Be aware and pay attention to the latest weather updates, especially if you carry out activities exposed to weather or close to a stream or shoreline. 


Meteo18 Weather Cam more information Meteo18 Weather Cam


warning for Thunderstorms more information blitzortung!


Rain radar more information rain snow radar


Visit our other weather sites:

Template documentation
and downloads

And another site



Weather Underground History page Text

Daily Summary for October 29, 2016 Units:  Metric    English   Both
« Previous Day
Next Day »
Daily Weekly Monthly Yearly Custom
  High: Low: Average:
Temperature: -17.8 °C -14.3 °C -12.9 °C
Dew Point: -17.8 °C -14.7 °C -13.4 °C
Humidity: Humidity % 87 % 94 %
Wind Speed: 0 km/h 0 km/h 12.6 km/h
Wind Gust: 0 km/h - -
Wind:- - ENE
Pressure: 0 hPa 34889.3 hPa -
Precipitation: 7.62 mm    
Historical Graphs
 
 
Tabular Data for October 29, 2016
Time Temperature Dew Point Pressure Wind Wind Speed Wind Gust Humidity Rainfall Rate (Hourly)
-17.8 °C -17.8 °C 0 hPa Calm     Humidity % 0 mm
00:02 -13.1 °C -13.8 °C 35058.6 hPa NNE 7.7 km/h 20.8 km/h 92 % 0 mm
00:12 -13.1 °C -13.8 °C 35058.6 hPa NE 10.3 km/h 28.5 km/h 92 % 0 mm
00:17 -13.1 °C -13.8 °C 35058.6 hPa NNE 15.6 km/h 28.5 km/h 92 % 0 mm
00:22 -13.2 °C -13.8 °C 35058.6 hPa NNE 15.6 km/h 28.5 km/h 92 % 0 mm
00:32 -13.2 °C -13.8 °C 35058.6 hPa ENE 15.6 km/h 25.9 km/h 93 % 0 mm
00:42 -13.1 °C -13.7 °C 35058.6 hPa NE 15.6 km/h 25.9 km/h 93 % 0 mm
00:52 -13.1 °C -13.8 °C 35058.6 hPa NNE 15.6 km/h 33.6 km/h 92 % 0 mm
01:02 -13.2 °C -13.8 °C 35058.6 hPa NNE 10.3 km/h 33.6 km/h 93 % 0 mm
01:12 -13.2 °C -13.9 °C 35048.5 hPa NNE 18.2 km/h 28.5 km/h 92 % 0 mm
01:22 -13.2 °C -13.8 °C 35048.5 hPa NNE 18.2 km/h 25.9 km/h 93 % 0 mm
01:32 -13.3 °C -13.9 °C 35048.5 hPa NE 10.3 km/h 31.1 km/h 93 % 0 mm
01:42 -13.4 °C -14 °C 35048.5 hPa NNE 10.3 km/h 31.1 km/h 93 % 0 mm
01:47 -13.4 °C -14 °C 35048.5 hPa NNE 18.2 km/h 28.5 km/h 93 % 0 mm
01:52 -13.4 °C -14.1 °C 35048.5 hPa NE 5.1 km/h 28.5 km/h 93 % 0 mm
01:57 -13.5 °C -14.1 °C 35048.5 hPa NNE 2.6 km/h 28.5 km/h 93 % 0 mm
02:02 -13.6 °C -14.2 °C 35038.3 hPa Calm   23.3 km/h 93 % 0 mm
02:12 -13.6 °C -14.1 °C 35038.3 hPa WSW 2.6 km/h 20.8 km/h 94 % 0 mm
02:17 -13.7 °C -14.2 °C 35038.3 hPa NW 7.7 km/h 20.8 km/h 94 % 0 mm
02:22 -13.7 °C -14.2 °C 35038.3 hPa NNE 7.7 km/h 20.8 km/h 94 % 0 mm
02:32 -13.8 °C -14.3 °C 35038.3 hPa ENE 7.7 km/h 20.8 km/h 94 % 0 mm
02:42 -13.7 °C -14.1 °C 35038.3 hPa NNE 10.3 km/h 15.6 km/h 95 % 0 mm
02:52 -13.7 °C -14.2 °C 35024.8 hPa NNE 15.6 km/h 23.3 km/h 94 % 0 mm
03:02 -13.7 °C -14.2 °C 35024.8 hPa NNW 2.6 km/h 28.5 km/h 94 % 0 mm
03:12 -13.9 °C -14.4 °C 35024.8 hPa North 10.3 km/h 28.5 km/h 94 % 0 mm
03:17 -13.9 °C -14.3 °C 35024.8 hPa NW 5.1 km/h 23.3 km/h 95 % 7.62 mm
03:22 -13.9 °C -14.3 °C 35024.8 hPa North 2.6 km/h 20.8 km/h 95 % 7.62 mm
03:32 -14.1 °C -14.4 °C 35024.8 hPa NNE 2.6 km/h 12.9 km/h 95 % 7.62 mm
03:42 -14 °C -14.3 °C 35024.8 hPa NE 7.7 km/h 12.9 km/h 96 % 7.62 mm
03:47 -13.9 °C -14.3 °C 35024.8 hPa NE 5.1 km/h 15.6 km/h 95 % 7.62 mm
03:52 -13.9 °C -14.3 °C 35024.8 hPa ENE 2.6 km/h 15.6 km/h 95 % 7.62 mm
03:57 -13.9 °C -14.3 °C 35024.8 hPa Calm   15.6 km/h 95 % 7.62 mm
04:02 -14.1 °C -14.4 °C 35024.8 hPa Calm   15.6 km/h 95 % 7.62 mm
04:07 -14.1 °C -14.5 °C 35024.8 hPa Calm   12.9 km/h 95 % 7.62 mm
04:17 -14.3 °C -14.7 °C 35024.8 hPa Calm   12.9 km/h 95 % 0 mm
04:22 -14.3 °C -14.7 °C 35024.8 hPa Calm   12.9 km/h 95 % 0 mm
04:32 -14.3 °C -14.6 °C 35024.8 hPa Calm   5.1 km/h 96 % 0 mm
04:37 -14.2 °C -14.6 °C 35024.8 hPa Calm   2.6 km/h 96 % 0 mm
04:42 -14.3 °C -14.6 °C 35024.8 hPa Calm   2.6 km/h 96 % 0 mm
04:47 -14.3 °C -14.6 °C 35024.8 hPa Calm   10.3 km/h 96 % 0 mm
04:57 -14.2 °C -14.6 °C 35024.8 hPa NNE 10.3 km/h 10.3 km/h 96 % 0 mm
05:02 -14.2 °C -14.6 °C 35024.8 hPa NNE 12.9 km/h 31.1 km/h 96 % 0 mm
05:12 -14.2 °C -14.5 °C 35024.8 hPa NNE 12.9 km/h 31.1 km/h 96 % 0 mm
05:17 -14.2 °C -14.5 °C 35024.8 hPa North 7.7 km/h 31.1 km/h 96 % 0 mm
05:22 -14.2 °C -14.5 °C 35024.8 hPa North 10.3 km/h 23.3 km/h 96 % 0 mm
05:27 -14.2 °C -14.6 °C 35024.8 hPa North 12.9 km/h 23.3 km/h 96 % 0 mm
05:32 -14.2 °C -14.6 °C 35024.8 hPa NE 12.9 km/h 28.5 km/h 96 % 0 mm
05:37 -14.3 °C -14.6 °C 35024.8 hPa NNE 20.8 km/h 28.5 km/h 96 % 0 mm
05:42 -14.3 °C -14.6 °C 35014.6 hPa NNE 10.3 km/h 31.1 km/h 96 % 0 mm
05:52 -14.3 °C -14.5 °C 35024.8 hPa NE 7.7 km/h 20.8 km/h 97 % 0 mm
06:02 -14.3 °C -14.5 °C 35024.8 hPa North 5.1 km/h 18.2 km/h 97 % 0 mm
06:12 -14.3 °C -14.5 °C 35024.8 hPa NE 12.9 km/h 18.2 km/h 97 % 0 mm
06:17 -14.3 °C -14.5 °C 35024.8 hPa NE 10.3 km/h 20.8 km/h 97 % 0 mm
06:27 -14.3 °C -14.5 °C 35014.6 hPa NE 7.7 km/h 20.8 km/h 97 % 0 mm
06:32 -14.3 °C -14.5 °C 35014.6 hPa NNE 15.6 km/h 20.8 km/h 97 % 0 mm
06:42 -14.3 °C -14.5 °C 35014.6 hPa NNE 7.7 km/h 23.3 km/h 97 % 0 mm
06:47 -14.3 °C -14.5 °C 35014.6 hPa NE 18.2 km/h 23.3 km/h 97 % 0 mm
06:57 -14.2 °C -14.4 °C 35014.6 hPa NE 23.3 km/h 28.5 km/h 97 % 0 mm
07:02 -14.2 °C -14.4 °C 35001.1 hPa NNE 15.6 km/h 28.5 km/h 97 % 0 mm
07:12 -14.2 °C -14.4 °C 35001.1 hPa NE 12.9 km/h 33.6 km/h 97 % 0 mm
07:17 -14.2 °C -14.4 °C 35001.1 hPa NE 15.6 km/h 28.5 km/h 97 % 0 mm
07:22 -14.2 °C -14.4 °C 35001.1 hPa NE 5.1 km/h 28.5 km/h 97 % 0 mm
07:32 -14.3 °C -14.5 °C 35001.1 hPa ENE 23.3 km/h 28.5 km/h 97 % 0 mm
07:42 -14.3 °C -14.5 °C 35001.1 hPa NE 12.9 km/h 25.9 km/h 97 % 0 mm
07:47 -14.3 °C -14.6 °C 35001.1 hPa NE 20.8 km/h 31.1 km/h 97 % 0 mm
07:57 -14.3 °C -14.6 °C 35014.6 hPa NE 10.3 km/h 31.1 km/h 97 % 0 mm
08:02 -14.3 °C -14.6 °C 35014.6 hPa NE 10.3 km/h 31.1 km/h 97 % 0 mm
08:12 -14.3 °C -14.6 °C 35001.1 hPa ENE 7.7 km/h 23.3 km/h 97 % 0 mm
08:17 -14.3 °C -14.6 °C 35001.1 hPa ENE 5.1 km/h 18.2 km/h 97 % 0 mm
08:22 -14.3 °C -14.6 °C 35014.6 hPa ENE 12.9 km/h 18.2 km/h 97 % 0 mm
08:32 -14.3 °C -14.6 °C 35014.6 hPa NE 10.3 km/h 18.2 km/h 97 % 0 mm
08:37 -14.3 °C -14.5 °C 35014.6 hPa NNE 12.9 km/h 20.8 km/h 97 % 0 mm
08:42 -14.3 °C -14.5 °C 35014.6 hPa NNE 12.9 km/h 20.8 km/h 97 % 0 mm
08:47 -14.3 °C -14.5 °C 35014.6 hPa NNE 10.3 km/h 20.8 km/h 97 % 0 mm
08:52 -14.2 °C -14.4 °C 35014.6 hPa ENE 5.1 km/h 20.8 km/h 98 % 0 mm
09:02 -14.2 °C -14.4 °C 35024.8 hPa ENE 7.7 km/h 20.8 km/h 98 % 0 mm
09:12 -14.2 °C -14.3 °C 35024.8 hPa ENE 5.1 km/h 18.2 km/h 98 % 0 mm
09:17 -14.1 °C -14.3 °C 35024.8 hPa NE 7.7 km/h 12.9 km/h 98 % 0 mm
09:22 -14.1 °C -14.3 °C 35024.8 hPa ENE 10.3 km/h 12.9 km/h 98 % 0 mm
09:32 -14.1 °C -14.3 °C 35024.8 hPa ENE 5.1 km/h 20.8 km/h 98 % 0 mm
09:37 -14.1 °C -14.3 °C 35024.8 hPa NE 7.7 km/h 20.8 km/h 98 % 0 mm
09:42 -14.1 °C -14.3 °C 35024.8 hPa NE 10.3 km/h 20.8 km/h 98 % 0 mm
09:47 -14.1 °C -14.3 °C 35024.8 hPa ENE 7.7 km/h 20.8 km/h 98 % 0 mm
09:52 -14.1 °C -14.3 °C 35024.8 hPa East 7.7 km/h 20.8 km/h 97 % 0 mm
10:02 -14.1 °C -14.3 °C 35024.8 hPa ENE 15.6 km/h 20.8 km/h 98 % 0 mm
10:07 -14.1 °C -14.3 °C 35024.8 hPa ENE 23.3 km/h 23.3 km/h 98 % 0 mm
10:17 -14.1 °C -14.3 °C 35024.8 hPa ENE 10.3 km/h 25.9 km/h 97 % 0 mm
10:22 -14.1 °C -14.2 °C 35024.8 hPa ENE 7.7 km/h 25.9 km/h 98 % 0 mm
10:27 -14.1 °C -14.2 °C 35024.8 hPa NE 7.7 km/h 23.3 km/h 98 % 0 mm
10:32 -14.1 °C -14.2 °C 35024.8 hPa ENE 12.9 km/h 23.3 km/h 98 % 0 mm
10:42 -14 °C -14.2 °C 35024.8 hPa ENE 7.7 km/h 23.3 km/h 98 % 0 mm
10:52 -13.9 °C -14.1 °C 35024.8 hPa NE 15.6 km/h 23.3 km/h 98 % 0 mm
11:02 -13.9 °C -14.1 °C 35024.8 hPa NNE 20.8 km/h 20.8 km/h 98 % 0 mm
11:12 -13.8 °C -14 °C 35024.8 hPa ENE 7.7 km/h 20.8 km/h 98 % 0 mm
11:17 -13.8 °C -14 °C 35024.8 hPa NNE 12.9 km/h 23.3 km/h 98 % 0 mm
11:27 -13.7 °C -13.9 °C 35024.8 hPa ENE 10.3 km/h 25.9 km/h 98 % 0 mm
11:32 -13.7 °C -13.8 °C 35024.8 hPa NE 10.3 km/h 25.9 km/h 98 % 0 mm
11:37 -13.6 °C -13.8 °C 35024.8 hPa NE 18.2 km/h 20.8 km/h 98 % 0 mm
11:42 -13.6 °C -13.8 °C 35024.8 hPa NNE 18.2 km/h 20.8 km/h 97 % 0 mm
11:47 -13.6 °C -13.8 °C 35024.8 hPa NNE 15.6 km/h 25.9 km/h 97 % 0 mm
11:52 -13.5 °C -13.7 °C 35024.8 hPa NE 12.9 km/h 25.9 km/h 97 % 0 mm
11:57 -13.5 °C -13.7 °C 35024.8 hPa NE 7.7 km/h 28.5 km/h 97 % 0 mm
12:02 -13.4 °C -13.6 °C 35024.8 hPa NNE 15.6 km/h 28.5 km/h 97 % 0 mm
12:12 -13.4 °C -13.7 °C 35024.8 hPa NE 15.6 km/h 28.5 km/h 96 % 0 mm
12:17 -13.3 °C -13.7 °C 35024.8 hPa ENE 25.9 km/h 28.5 km/h 96 % 0 mm
12:22 -13.3 °C -13.7 °C 35024.8 hPa NE 12.9 km/h 28.5 km/h 96 % 0 mm
12:32 -13.3 °C -13.6 °C 35024.8 hPa ENE 12.9 km/h 33.6 km/h 96 % 0 mm
12:37 -13.3 °C -13.7 °C 35024.8 hPa NNE 23.3 km/h 33.6 km/h 95 % 0 mm
12:42 -13.2 °C -13.7 °C 35024.8 hPa NNE 10.3 km/h 28.5 km/h 95 % 0 mm
12:52 -13.1 °C -13.6 °C 35014.6 hPa ENE 18.2 km/h 28.5 km/h 94 % 0 mm
13:02 -13 °C -13.5 °C 35014.6 hPa NE 7.7 km/h 31.1 km/h 94 % 0 mm
13:12 -12.9 °C -13.6 °C 35014.6 hPa East 18.2 km/h 23.3 km/h 93 % 0 mm
13:22 -12.9 °C -13.5 °C 35001.1 hPa NE 15.6 km/h 23.3 km/h 93 % 0 mm
13:32 -12.8 °C -13.4 °C 35001.1 hPa NE 20.8 km/h 25.9 km/h 93 % 0 mm
13:42 -12.7 °C -13.3 °C 34990.9 hPa NE 15.6 km/h 25.9 km/h 93 % 0 mm
13:52 -12.7 °C -13.3 °C 34990.9 hPa NNE 23.3 km/h 31.1 km/h 92 % 0 mm
13:57 -12.7 °C -13.3 °C 34990.9 hPa North 5.1 km/h 31.1 km/h 92 % 0 mm
14:02 -12.6 °C -13.3 °C 34990.9 hPa NE 15.6 km/h 28.5 km/h 92 % 0 mm
14:12 -12.4 °C -13.1 °C 34980.8 hPa NNE 15.6 km/h 25.9 km/h 92 % 0 mm
14:17 -12.4 °C -13.1 °C 34980.8 hPa NE 18.2 km/h 25.9 km/h 92 % 0 mm
14:27 -12.4 °C -13.1 °C 34980.8 hPa NE 10.3 km/h 31.1 km/h 92 % 0 mm
14:32 -12.3 °C -13.1 °C 34980.8 hPa NNE 18.2 km/h 33.6 km/h 91 % 0 mm
14:37 -12.3 °C -13.1 °C 34980.8 hPa NE 25.9 km/h 33.6 km/h 91 % 0 mm
14:42 -12.3 °C -13.1 °C 34980.8 hPa East 12.9 km/h 31.1 km/h 91 % 0 mm
14:52 -12.1 °C -13 °C 34967.2 hPa NE 12.9 km/h 28.5 km/h 90 % 0 mm
15:02 -11.9 °C -12.8 °C 34957.1 hPa ENE 10.3 km/h 28.5 km/h 90 % 0 mm
15:12 -11.9 °C -12.8 °C 34957.1 hPa NE 20.8 km/h 28.5 km/h 89 % 0 mm
15:17 -11.8 °C -12.8 °C 34946.9 hPa ENE 12.9 km/h 33.6 km/h 89 % 0 mm
15:22 -11.8 °C -12.7 °C 34946.9 hPa East 18.2 km/h 33.6 km/h 89 % 0 mm
15:32 -11.5 °C -12.6 °C 34946.9 hPa ENE 10.3 km/h 28.5 km/h 88 % 0 mm
15:37 -11.2 °C -12.4 °C 34946.9 hPa NE 18.2 km/h 28.5 km/h 87 % 0 mm
15:42 -11.1 °C -12.2 °C 34946.9 hPa NW 5.1 km/h 28.5 km/h 87 % 0 mm
15:52 -11.2 °C -12.4 °C 34933.4 hPa ENE 15.6 km/h 28.5 km/h 87 % 0 mm
15:57 -11.3 °C -12.5 °C 34933.4 hPa NE 10.3 km/h 36.2 km/h 87 % 0 mm
16:02 -11.4 °C -12.5 °C 34933.4 hPa NNE 20.8 km/h 36.2 km/h 88 % 0 mm
16:07 -11.4 °C -12.5 °C 34933.4 hPa NE 28.5 km/h 38.8 km/h 88 % 0 mm
16:17 -11.6 °C -12.5 °C 34933.4 hPa NNE 18.2 km/h 38.8 km/h 89 % 0 mm
16:22 -11.6 °C -12.4 °C 34933.4 hPa NE 25.9 km/h 33.6 km/h 90 % 0 mm
16:32 -11.6 °C -12.5 °C 34933.4 hPa NNE 20.8 km/h 33.6 km/h 90 % 0 mm
16:37 -11.6 °C -12.5 °C 34933.4 hPa NE 15.6 km/h 33.6 km/h 90 % 0 mm
16:42 -11.7 °C -12.4 °C 34933.4 hPa NNE 18.2 km/h 33.6 km/h 91 % 0 mm
16:52 -11.6 °C -12.4 °C 34923.2 hPa NNE 15.6 km/h 38.8 km/h 91 % 0 mm
16:57 -11.6 °C -12.4 °C 34923.2 hPa NE 23.3 km/h 36.2 km/h 91 % 0 mm
17:02 -11.6 °C -12.4 °C 34909.7 hPa NE 18.2 km/h 33.6 km/h 91 % 0 mm
17:12 -11.7 °C -12.3 °C 34909.7 hPa NNE 18.2 km/h 31.1 km/h 92 % 0 mm
17:17 -11.7 °C -12.4 °C 34909.7 hPa NE 18.2 km/h 33.6 km/h 92 % 0 mm
17:22 -11.7 °C -12.3 °C 34909.7 hPa ENE 28.5 km/h 33.6 km/h 93 % 0 mm
17:27 -11.8 °C -12.4 °C 34909.7 hPa NE 23.3 km/h 31.1 km/h 93 % 0 mm
17:37 -11.8 °C -12.4 °C 34909.7 hPa NNE 25.9 km/h 36.2 km/h 93 % 0 mm
17:52 -11.8 °C -12.3 °C 34909.7 hPa ENE 25.9 km/h 36.2 km/h 94 % 0 mm
17:57 -11.8 °C -12.3 °C 34909.7 hPa ENE 10.3 km/h 41.4 km/h 94 % 0 mm
18:02 -11.7 °C -12.2 °C 34909.7 hPa NE 25.9 km/h 41.4 km/h 94 % 0 mm
18:07 -11.7 °C -12.2 °C 34909.7 hPa NE 20.8 km/h 33.6 km/h 94 % 0 mm
18:12 -11.7 °C -12.2 °C 34909.7 hPa NE 20.8 km/h 33.6 km/h 94 % 0 mm
18:17 -11.7 °C -12.2 °C 34909.7 hPa NE 25.9 km/h 31.1 km/h 94 % 0 mm
18:22 -11.7 °C -12.2 °C 34909.7 hPa NE 18.2 km/h 31.1 km/h 94 % 0 mm
18:32 -11.7 °C -12.2 °C 34909.7 hPa ENE 10.3 km/h 41.4 km/h 94 % 0 mm
18:37 -11.7 °C -12.2 °C 34909.7 hPa NNE 15.6 km/h 33.6 km/h 94 % 0 mm
18:42 -11.7 °C -12.2 °C 34909.7 hPa ENE 10.3 km/h 33.6 km/h 94 % 0 mm
18:52 -11.7 °C -12.2 °C 34909.7 hPa NE 12.9 km/h 38.8 km/h 94 % 0 mm
19:02 -11.6 °C -12.1 °C 34909.7 hPa NE 25.9 km/h 44.1 km/h 94 % 0 mm
19:12 -11.6 °C -12.2 °C 34909.7 hPa NNE 15.6 km/h 36.2 km/h 93 % 0 mm
19:17 -11.6 °C -12.2 °C 34909.7 hPa NNE 20.8 km/h 36.2 km/h 93 % 0 mm
19:22 -11.5 °C -12.1 °C 34909.7 hPa NE 12.9 km/h 28.5 km/h 93 % 0 mm
19:32 -11.5 °C -12.1 °C 34909.7 hPa NE 20.8 km/h 28.5 km/h 93 % 0 mm
19:42 -11.4 °C -12.1 °C 34909.7 hPa NNE 10.3 km/h 31.1 km/h 93 % 0 mm
19:47 -11.4 °C -12.1 °C 34909.7 hPa ENE 18.2 km/h 31.1 km/h 93 % 0 mm
19:52 -11.4 °C -12 °C 34909.7 hPa NE 15.6 km/h 31.1 km/h 93 % 0 mm
19:57 -11.3 °C -11.9 °C 34909.7 hPa NE 12.9 km/h 28.5 km/h 93 % 0 mm
20:02 -11.3 °C -11.9 °C 34909.7 hPa NE 28.5 km/h 28.5 km/h 93 % 0 mm
20:07 -11.3 °C -12 °C 34909.7 hPa NE 18.2 km/h 33.6 km/h 92 % 0 mm
20:12 -11.3 °C -12 °C 34909.7 hPa ENE 18.2 km/h 33.6 km/h 92 % 0 mm
20:17 -11.2 °C -11.9 °C 34899.5 hPa ENE 20.8 km/h 36.2 km/h 92 % 0 mm
20:22 -11.2 °C -11.9 °C 34899.5 hPa East 12.9 km/h 36.2 km/h 92 % 0 mm
20:32 -11.2 °C -11.9 °C 34899.5 hPa NE 10.3 km/h 36.2 km/h 92 % 0 mm
20:42 -11.2 °C -11.9 °C 34899.5 hPa North 15.6 km/h 38.8 km/h 92 % 0 mm
20:52 -11.2 °C -11.9 °C 34899.5 hPa NE 15.6 km/h 38.8 km/h 92 % 0 mm
21:02 -11.1 °C -11.9 °C 34899.5 hPa NNE 10.3 km/h 33.6 km/h 91 % 0 mm
21:07 -11.1 °C -11.9 °C 34899.5 hPa NE 20.8 km/h 33.6 km/h 91 % 0 mm
21:12 -11.1 °C -11.9 °C 34899.5 hPa North 12.9 km/h 33.6 km/h 91 % 0 mm
21:17 -11.1 °C -11.9 °C 34899.5 hPa NE 15.6 km/h 31.1 km/h 91 % 0 mm
21:22 -11.2 °C -11.9 °C 34899.5 hPa NW 12.9 km/h 28.5 km/h 91 % 0 mm
21:32 -11.3 °C -12.1 °C 34889.3 hPa NE 12.9 km/h 28.5 km/h 91 % 0 mm
21:42 -11.4 °C -12.1 °C 34889.3 hPa NNW 7.7 km/h 28.5 km/h 92 % 0 mm
21:47 -11.4 °C -12.2 °C 34889.3 hPa NNE 15.6 km/h 23.3 km/h 92 % 0 mm
21:52 -11.4 °C -12.2 °C 34889.3 hPa NE 18.2 km/h 23.3 km/h 92 % 0 mm
22:02 -11.5 °C -12.2 °C 34889.3 hPa North 15.6 km/h 25.9 km/h 92 % 0 mm
22:07 -11.6 °C -12.3 °C 34889.3 hPa NNE 5.1 km/h 25.9 km/h 92 % 0 mm
22:17 -11.7 °C -12.3 °C 34889.3 hPa North 5.1 km/h 20.8 km/h 93 % 0 mm
22:27 -11.7 °C -12.3 °C 34889.3 hPa North 5.1 km/h 15.6 km/h 93 % 0 mm
22:32 -11.7 °C -12.3 °C 34889.3 hPa North 7.7 km/h 15.6 km/h 93 % 0 mm
22:37 -11.8 °C -12.4 °C 34889.3 hPa NW 5.1 km/h 15.6 km/h 93 % 0 mm
22:42 -11.8 °C -12.3 °C 34889.3 hPa NNE 7.7 km/h 15.6 km/h 94 % 0 mm
22:52 -11.9 °C -12.4 °C 34889.3 hPa North 5.1 km/h 15.6 km/h 94 % 0 mm
22:57 -11.9 °C -12.4 °C 34889.3 hPa North 2.6 km/h 10.3 km/h 94 % 0 mm
23:02 -11.9 °C -12.4 °C 34889.3 hPa NNW 10.3 km/h 15.6 km/h 94 % 0 mm
23:07 -11.9 °C -12.4 °C 34889.3 hPa Calm   18.2 km/h 94 % 0 mm
23:17 -12 °C -12.5 °C 34889.3 hPa North 5.1 km/h 18.2 km/h 94 % 0 mm
23:22 -12 °C -12.6 °C 34889.3 hPa NNE 7.7 km/h 18.2 km/h 93 % 0 mm
23:32 -12.1 °C -12.6 °C 34889.3 hPa North 2.6 km/h 15.6 km/h 94 % 0 mm
23:42 -12.1 °C -12.7 °C 34889.3 hPa NNE 2.6 km/h 10.3 km/h 93 % 0 mm
23:52 -12.2 °C -12.8 °C 34889.3 hPa NE 7.7 km/h 10.3 km/h 93 % 0 mm
23:57 -12.1 °C -12.7 °C 34889.3 hPa NNE 5.1 km/h 15.6 km/h 93 % 0 mm
Meteo18
Compliments of Weather Underground - 4 mb

Script developed by  Jim McMurry - jmcmurry@mwt.net Adapted for the template by  Wim van der Kuil - Leuven-Template.eu

You find our weather info also at:

European Weather Network

Weather Underground

Equipment we use:

Weather-station
Davis Vue

Weather-program
Meteobridge

Weather-server
Raspberry PI 2 B+

Provider
1 and 1

Davis Vue

Meteobridge

Raspberry PI 2 B+

1 and 1